createdAt,value
2023-04-24T00:00:18.845Z,9.32
2023-04-24T00:02:48.213Z,7.32
2023-04-24T00:05:18.364Z,9.68
2023-04-24T00:07:47.526Z,7.22
2023-04-24T00:10:15.618Z,6.72
2023-04-24T00:12:43.476Z,7.35
2023-04-24T00:15:12.295Z,7.90
2023-04-24T00:17:41.097Z,6.63
2023-04-24T00:20:11.579Z,6.60
2023-04-24T00:22:39.315Z,8.05
2023-04-24T00:25:09.377Z,7.53
2023-04-24T00:27:38.077Z,7.50
2023-04-24T00:30:07.049Z,8.57
2023-04-24T00:32:34.823Z,7.53
2023-04-24T00:35:02.675Z,7.35
2023-04-24T00:37:30.590Z,7.15
2023-04-24T00:39:58.267Z,7.05
2023-04-24T00:42:27.375Z,7.43
2023-04-24T00:44:55.116Z,7.15
2023-04-24T00:47:23.888Z,7.15
2023-04-24T00:49:51.712Z,6.88
2023-04-24T00:52:21.789Z,6.90
2023-04-24T00:54:50.023Z,7.95
2023-04-24T00:57:18.529Z,7.28
2023-04-24T00:59:47.886Z,7.43
2023-04-24T01:02:16.591Z,7.05
2023-04-24T01:04:45.118Z,7.72
2023-04-24T01:07:14.164Z,7.80
2023-04-24T01:09:43.594Z,7.40
2023-04-24T01:12:11.528Z,7.88
2023-04-24T01:14:39.518Z,8.98
2023-04-24T01:17:10.174Z,7.85
2023-04-24T01:19:38.177Z,8.40
2023-04-24T01:22:12.587Z,7.53
2023-04-24T01:24:40.678Z,10.48
2023-04-24T01:27:09.545Z,7.70
2023-04-24T01:29:37.685Z,7.47
2023-04-24T01:32:05.790Z,7.78
2023-04-24T01:34:34.462Z,7.78
2023-04-24T01:37:02.534Z,8.13
2023-04-24T01:39:32.243Z,7.78
2023-04-24T01:42:00.091Z,8.10
2023-04-24T01:44:28.437Z,8.10
2023-04-24T01:46:57.567Z,7.70
2023-04-24T01:49:25.483Z,8.60
2023-04-24T01:51:53.201Z,8.80
2023-04-24T01:54:21.209Z,7.30
2023-04-24T01:56:50.845Z,8.77
2023-04-24T01:59:19.175Z,7.35
2023-04-24T02:01:46.948Z,8.68
2023-04-24T02:04:16.329Z,7.85
2023-04-24T02:06:44.241Z,7.68
2023-04-24T02:09:12.070Z,7.45
2023-04-24T02:11:39.790Z,8.18
2023-04-24T02:14:08.915Z,7.50
2023-04-24T02:16:36.904Z,7.32
2023-04-24T02:19:04.974Z,7.85
2023-04-24T02:21:33.735Z,6.75
2023-04-24T02:24:01.869Z,6.88
2023-04-24T02:26:29.797Z,7.03
2023-04-24T02:28:57.600Z,6.55
2023-04-24T02:31:27.202Z,6.15
2023-04-24T02:33:55.100Z,6.72
2023-04-24T02:36:23.066Z,5.53
2023-04-24T02:38:51.195Z,4.80
2023-04-24T02:41:18.956Z,4.70
2023-04-24T02:43:46.668Z,4.15
2023-04-24T02:46:14.622Z,4.80
2023-04-24T02:48:43.829Z,4.32
2023-04-24T02:51:11.528Z,4.53
2023-04-24T02:53:39.256Z,4.43
2023-04-24T02:56:07.067Z,4.30
2023-04-24T02:58:35.107Z,3.97
2023-04-24T03:01:03.020Z,4.07
2023-04-24T03:03:31.287Z,3.75
2023-04-24T03:06:00.991Z,3.17
2023-04-24T03:08:28.756Z,3.30
2023-04-24T03:10:56.444Z,3.15
2023-04-24T03:13:24.272Z,3.38
2023-04-24T03:15:52.088Z,2.58
2023-04-24T03:18:20.104Z,3.47
2023-04-24T03:20:49.432Z,3.10
2023-04-24T03:23:18.505Z,2.90
2023-04-24T03:25:47.074Z,2.83
2023-04-24T03:28:14.888Z,3.03
2023-04-24T03:30:50.431Z,3.88
2023-04-24T03:33:19.357Z,3.28
2023-04-24T03:35:58.945Z,3.05
2023-04-24T03:38:28.254Z,3.28
2023-04-24T03:41:16.376Z,3.15
2023-04-24T03:43:48.223Z,3.47
2023-04-24T03:46:16.917Z,3.20
2023-04-24T03:48:54.438Z,3.60
2023-04-24T03:51:26.329Z,3.40
2023-04-24T03:53:58.646Z,3.95
2023-04-24T03:56:29.584Z,3.10
2023-04-24T03:58:57.301Z,3.38
2023-04-24T04:01:25.672Z,3.40
2023-04-24T04:04:02.054Z,3.60
2023-04-24T04:06:32.705Z,3.20
2023-04-24T04:09:04.035Z,3.33
2023-04-24T04:11:32.347Z,3.22
2023-04-24T04:14:00.176Z,3.30
2023-04-24T04:16:28.456Z,3.33
2023-04-24T04:19:03.829Z,2.63
2023-04-24T04:21:33.045Z,3.17
2023-04-24T04:24:13.755Z,3.33
2023-04-24T04:26:48.057Z,3.53
2023-04-24T04:29:24.857Z,3.20
2023-04-24T04:31:53.412Z,3.25
2023-04-24T04:34:23.478Z,3.00
2023-04-24T04:36:51.940Z,4.18
2023-04-24T04:39:34.926Z,3.40
2023-04-24T04:42:07.608Z,3.47
2023-04-24T04:44:41.718Z,3.38
2023-04-24T04:47:12.822Z,3.13
2023-04-24T04:49:42.305Z,3.67
2023-04-24T04:52:18.673Z,3.25
2023-04-24T04:54:50.908Z,3.50
2023-04-24T04:57:18.752Z,2.40
2023-04-24T04:59:47.410Z,3.83
2023-04-24T05:02:23.720Z,2.97
2023-04-24T05:04:52.364Z,2.78
2023-04-24T05:07:20.582Z,2.97
2023-04-24T05:09:54.125Z,2.80
2023-04-24T05:12:21.952Z,2.67
2023-04-24T05:14:53.503Z,2.45
2023-04-24T05:17:21.579Z,2.35
2023-04-24T05:19:49.530Z,3.10
2023-04-24T05:22:20.022Z,2.50
2023-04-24T05:24:54.224Z,2.55
2023-04-24T05:27:34.438Z,2.70
2023-04-24T05:30:05.502Z,2.30
2023-04-24T05:32:33.326Z,2.20
2023-04-24T05:35:01.541Z,2.53
2023-04-24T05:37:29.352Z,2.22
2023-04-24T05:39:58.793Z,2.90
2023-04-24T05:42:27.706Z,2.42
2023-04-24T05:44:57.936Z,2.80
2023-04-24T05:47:27.236Z,2.22
2023-04-24T05:49:55.776Z,2.45
2023-04-24T05:52:23.840Z,2.60
2023-04-24T05:54:52.697Z,2.60
2023-04-24T05:57:26.708Z,2.40
2023-04-24T05:59:59.103Z,2.70
2023-04-24T06:02:28.531Z,2.20
2023-04-24T06:04:56.558Z,2.22
2023-04-24T06:07:27.184Z,2.40
2023-04-24T06:09:55.061Z,2.40
2023-04-24T06:12:23.659Z,2.40
2023-04-24T06:14:58.992Z,2.20
2023-04-24T06:17:36.500Z,2.30
2023-04-24T06:20:07.063Z,2.28
2023-04-24T06:22:35.201Z,2.80
2023-04-24T06:25:03.297Z,6.63
2023-04-24T06:27:31.100Z,2.30
2023-04-24T06:30:00.212Z,2.22
2023-04-24T06:32:29.330Z,2.15
2023-04-24T06:34:59.029Z,2.35
2023-04-24T06:37:27.790Z,2.30
2023-04-24T06:39:55.931Z,2.30
2023-04-24T06:42:25.516Z,2.33
2023-04-24T06:44:53.461Z,2.40
2023-04-24T06:47:23.031Z,2.40
2023-04-24T06:49:53.447Z,2.53
2023-04-24T06:52:21.706Z,2.17
2023-04-24T06:54:49.513Z,2.50
2023-04-24T06:57:18.030Z,2.55
2023-04-24T06:59:45.992Z,2.33
2023-04-24T07:02:14.001Z,2.22
2023-04-24T07:04:43.278Z,2.30
2023-04-24T07:07:14.018Z,2.33
2023-04-24T07:09:43.542Z,2.20
2023-04-24T07:12:12.219Z,2.25
2023-04-24T07:14:40.349Z,2.42
2023-04-24T07:17:08.249Z,2.28
2023-04-24T07:19:36.506Z,2.08
2023-04-24T07:22:05.694Z,2.42
2023-04-24T07:24:33.810Z,2.63
2023-04-24T07:27:01.967Z,2.38
2023-04-24T07:29:29.685Z,2.60
2023-04-24T07:31:57.915Z,5.70
2023-04-24T07:34:25.855Z,2.90
2023-04-24T07:36:54.100Z,2.58
2023-04-24T07:39:23.157Z,2.72
2023-04-24T07:41:50.912Z,2.45
2023-04-24T07:44:19.756Z,3.08
2023-04-24T07:46:47.798Z,2.90
2023-04-24T07:49:17.099Z,3.40
2023-04-24T07:51:47.090Z,3.50
2023-04-24T07:54:14.928Z,3.72
2023-04-24T07:56:45.735Z,3.55
2023-04-24T07:59:13.807Z,3.78
2023-04-24T08:01:41.525Z,4.82
2023-04-24T08:04:09.536Z,4.28
2023-04-24T08:06:37.692Z,4.15
2023-04-24T08:09:05.873Z,4.20
2023-04-24T08:11:34.191Z,4.35
2023-04-24T08:14:03.983Z,4.10
2023-04-24T08:16:32.026Z,4.25
2023-04-24T08:18:59.913Z,5.05
2023-04-24T08:21:28.139Z,5.30
2023-04-24T08:23:56.224Z,4.80
2023-04-24T08:26:23.936Z,5.05
2023-04-24T08:28:52.070Z,4.78
2023-04-24T08:31:21.280Z,5.00
2023-04-24T08:33:49.777Z,5.30
2023-04-24T08:36:17.849Z,4.97
2023-04-24T08:38:47.356Z,5.38
2023-04-24T08:41:16.406Z,5.32
2023-04-24T08:43:44.084Z,5.80
2023-04-24T08:46:12.806Z,5.30
2023-04-24T08:48:42.899Z,5.55
2023-04-24T08:51:11.725Z,5.70
2023-04-24T08:53:39.892Z,5.20
2023-04-24T08:56:07.663Z,4.82
2023-04-24T08:58:35.453Z,5.50
2023-04-24T09:01:04.108Z,5.38
2023-04-24T09:03:32.172Z,4.25
2023-04-24T09:06:02.734Z,4.82
2023-04-24T09:08:30.999Z,4.50
2023-04-24T09:10:59.924Z,5.10
2023-04-24T09:13:28.001Z,5.00
2023-04-24T09:15:58.774Z,4.57
2023-04-24T09:18:26.431Z,5.30
2023-04-24T09:21:02.893Z,5.35
2023-04-24T09:23:31.561Z,5.30
2023-04-24T09:26:01.011Z,5.68
2023-04-24T09:28:31.707Z,6.13
2023-04-24T09:31:08.425Z,6.53
2023-04-24T09:33:36.572Z,6.15
2023-04-24T09:36:06.951Z,5.88
2023-04-24T09:38:36.141Z,6.95
2023-04-24T09:41:04.767Z,6.55
2023-04-24T09:43:32.433Z,6.45
2023-04-24T09:46:01.964Z,6.30
2023-04-24T09:48:33.773Z,6.60
2023-04-24T09:51:02.796Z,6.38
2023-04-24T09:53:32.443Z,6.40
2023-04-24T09:56:04.927Z,7.00
2023-04-24T09:58:33.134Z,6.85
2023-04-24T10:01:00.973Z,7.20
2023-04-24T10:03:32.029Z,6.93
2023-04-24T10:06:00.733Z,7.03
2023-04-24T10:08:28.715Z,6.97
2023-04-24T10:10:57.830Z,6.05
2023-04-24T10:13:25.718Z,6.80
2023-04-24T10:15:53.835Z,5.88
2023-04-24T10:18:23.085Z,6.40
2023-04-24T10:20:50.904Z,6.10
2023-04-24T10:23:20.310Z,6.38
2023-04-24T10:25:48.487Z,7.15
2023-04-24T10:28:17.631Z,7.00
2023-04-24T10:30:45.548Z,6.88
2023-04-24T10:33:14.305Z,7.47
2023-04-24T10:35:45.003Z,7.10
2023-04-24T10:38:15.080Z,7.90
2023-04-24T10:40:44.445Z,7.43
2023-04-24T10:43:12.363Z,6.97
2023-04-24T10:45:42.205Z,7.05
2023-04-24T10:48:14.614Z,8.10
2023-04-24T10:50:47.045Z,7.57
2023-04-24T10:53:17.048Z,7.53
2023-04-24T10:55:47.648Z,8.18
2023-04-24T10:58:17.931Z,9.15
2023-04-24T11:00:58.074Z,7.80
2023-04-24T11:03:28.124Z,8.23
2023-04-24T11:05:58.783Z,8.82
2023-04-24T11:08:29.000Z,8.95
2023-04-24T11:10:58.978Z,9.60
2023-04-24T11:13:27.599Z,10.57
2023-04-24T11:16:15.973Z,9.27
2023-04-24T11:18:46.970Z,9.25
2023-04-24T11:21:14.943Z,13.38
2023-04-24T11:23:42.873Z,10.02
2023-04-24T11:26:15.158Z,10.27
2023-04-24T11:28:47.906Z,9.80
2023-04-24T11:31:39.755Z,9.43
2023-04-24T11:34:09.463Z,9.73
2023-04-24T11:36:37.619Z,9.93
2023-04-24T11:39:06.050Z,10.60
2023-04-24T11:41:34.118Z,10.82
2023-04-24T11:44:02.221Z,13.00
2023-04-24T11:46:32.412Z,12.35
2023-04-24T11:49:01.741Z,11.65
2023-04-24T11:51:33.833Z,10.80
2023-04-24T11:54:10.932Z,10.68
2023-04-24T11:56:39.784Z,10.57
2023-04-24T11:59:08.343Z,10.40
2023-04-24T12:01:45.186Z,10.63
2023-04-24T12:04:14.886Z,9.70
2023-04-24T12:06:42.849Z,11.20
2023-04-24T12:09:18.232Z,10.27
2023-04-24T12:11:55.485Z,10.05
2023-04-24T12:14:23.187Z,10.70
2023-04-24T12:16:50.978Z,9.43
2023-04-24T12:19:22.723Z,9.65
2023-04-24T12:22:01.557Z,10.55
2023-04-24T12:24:29.312Z,11.32
2023-04-24T12:26:57.761Z,9.40
2023-04-24T12:29:26.221Z,8.80
2023-04-24T12:31:53.980Z,8.32
2023-04-24T12:34:24.610Z,7.53
2023-04-24T12:36:52.859Z,7.70
2023-04-24T12:39:21.407Z,7.38
2023-04-24T12:41:59.098Z,7.88
2023-04-24T12:44:35.356Z,7.45
2023-04-24T12:47:03.382Z,7.43
2023-04-24T12:49:33.323Z,7.55
2023-04-24T12:52:01.633Z,6.13
2023-04-24T12:54:34.527Z,7.53
2023-04-24T12:57:02.953Z,6.93
2023-04-24T12:59:30.611Z,7.43
2023-04-24T13:01:58.476Z,7.30
2023-04-24T13:04:26.285Z,7.20
2023-04-24T13:06:55.892Z,7.82
2023-04-24T13:09:24.675Z,7.60
2023-04-24T13:11:52.555Z,8.30
2023-04-24T13:14:20.596Z,7.57
2023-04-24T13:16:48.366Z,7.82
2023-04-24T13:19:16.073Z,6.88
2023-04-24T13:21:44.550Z,7.45
2023-04-24T13:24:13.960Z,7.22
2023-04-24T13:26:41.585Z,7.15
2023-04-24T13:29:09.411Z,7.05
2023-04-24T13:31:37.631Z,7.20
2023-04-24T13:34:05.819Z,7.57
2023-04-24T13:36:33.580Z,6.95
2023-04-24T13:39:01.339Z,7.85
2023-04-24T13:41:31.126Z,8.32
2023-04-24T13:43:58.817Z,7.43
2023-04-24T13:46:26.633Z,7.57
2023-04-24T13:48:54.537Z,7.28
2023-04-24T13:51:22.303Z,6.90
2023-04-24T13:53:49.992Z,7.18
2023-04-24T13:56:17.712Z,7.85
2023-04-24T13:58:46.921Z,8.00
2023-04-24T14:01:15.924Z,8.88
2023-04-24T14:03:44.975Z,8.73
2023-04-24T14:06:13.114Z,8.90
2023-04-24T14:08:41.113Z,8.90
2023-04-24T14:11:08.854Z,8.43
2023-04-24T14:13:37.522Z,10.85
2023-04-24T14:16:07.345Z,8.40
2023-04-24T14:18:37.056Z,9.23
2023-04-24T14:21:04.987Z,8.50
2023-04-24T14:23:32.698Z,8.63
2023-04-24T14:26:00.956Z,8.88
2023-04-24T14:28:28.739Z,7.97
2023-04-24T14:30:56.561Z,8.63
2023-04-24T14:33:25.786Z,8.65
2023-04-24T14:35:53.980Z,9.32
2023-04-24T14:38:21.856Z,8.38
2023-04-24T14:43:21.449Z,8.05
2023-04-24T14:45:49.361Z,9.23
2023-04-24T14:48:17.436Z,7.78
2023-04-24T14:50:46.857Z,8.35
2023-04-24T14:53:14.557Z,6.90
2023-04-24T14:55:42.234Z,6.90
2023-04-24T14:58:10.048Z,5.85
2023-04-24T15:00:38.301Z,5.45
2023-04-24T15:03:06.804Z,5.00
2023-04-24T15:05:35.589Z,5.40
2023-04-24T15:08:05.325Z,5.10
2023-04-24T15:10:33.029Z,4.78
2023-04-24T15:13:00.782Z,3.63
2023-04-24T15:15:28.591Z,4.30
2023-04-24T15:17:56.688Z,4.55
2023-04-24T15:20:24.486Z,3.83
2023-04-24T15:22:52.213Z,3.55
2023-04-24T15:25:21.756Z,3.42
2023-04-24T15:27:50.060Z,3.47
2023-04-24T15:30:17.783Z,2.90
2023-04-24T15:32:46.015Z,3.67
2023-04-24T15:35:13.889Z,3.00
2023-04-24T15:37:41.591Z,3.35
2023-04-24T15:40:12.108Z,3.72
2023-04-24T15:42:41.407Z,3.88
2023-04-24T15:45:10.482Z,4.40
2023-04-24T15:47:38.455Z,3.55
2023-04-24T15:50:09.184Z,3.63
2023-04-24T15:52:36.850Z,3.92
2023-04-24T15:55:05.752Z,4.78
2023-04-24T15:57:33.687Z,4.50
2023-04-24T16:00:04.145Z,4.60
2023-04-24T16:02:40.006Z,4.53
2023-04-24T16:05:08.720Z,4.70
2023-04-24T16:07:36.733Z,4.72
2023-04-24T16:10:04.696Z,5.50
2023-04-24T16:12:32.841Z,9.68
2023-04-24T16:15:03.054Z,10.27
2023-04-24T16:17:31.082Z,12.15
2023-04-24T16:19:58.780Z,11.27
2023-04-24T16:22:26.548Z,10.00
2023-04-24T16:24:54.169Z,15.07
2023-04-24T16:27:22.369Z,9.80
2023-04-24T16:29:50.072Z,9.55
2023-04-24T16:32:19.188Z,12.48
2023-04-24T16:34:46.878Z,9.73
2023-04-24T16:37:14.709Z,12.82
2023-04-24T16:39:44.745Z,8.88
2023-04-24T16:42:13.140Z,9.93
2023-04-24T16:44:41.101Z,11.20
2023-04-24T16:47:09.386Z,10.80
2023-04-24T16:49:38.431Z,12.60
2023-04-24T16:52:06.335Z,10.32
2023-04-24T16:54:35.332Z,9.85
2023-04-24T16:57:03.250Z,8.88
2023-04-24T16:59:33.754Z,10.57
2023-04-24T17:02:01.736Z,9.77
2023-04-24T17:04:29.603Z,10.68
2023-04-24T17:07:00.294Z,26.92
2023-04-24T17:09:28.046Z,8.93
2023-04-24T17:11:56.598Z,8.55
2023-04-24T17:14:26.362Z,9.52
2023-04-24T17:16:54.704Z,8.73
2023-04-24T17:19:22.481Z,8.60
2023-04-24T17:21:50.245Z,7.38
2023-04-24T17:24:19.309Z,9.00
2023-04-24T17:26:47.044Z,9.40
2023-04-24T17:29:15.625Z,10.80
2023-04-24T17:31:43.516Z,9.50
2023-04-24T17:34:11.220Z,9.40
2023-04-24T17:36:39.185Z,9.75
2023-04-24T17:39:07.191Z,11.98
2023-04-24T17:41:36.809Z,14.75
2023-04-24T17:44:05.254Z,13.20
2023-04-24T17:46:33.050Z,9.80
2023-04-24T17:49:01.170Z,13.88
2023-04-24T17:51:29.066Z,11.25
2023-04-24T17:53:56.862Z,11.00
2023-04-24T17:56:24.897Z,9.65
2023-04-24T17:58:54.010Z,15.02
2023-04-24T18:01:22.710Z,12.52
2023-04-24T18:03:50.798Z,13.68
2023-04-24T18:06:19.200Z,14.30
2023-04-24T18:08:47.555Z,16.85
2023-04-24T18:11:15.938Z,12.70
2023-04-24T18:13:45.960Z,15.82
2023-04-24T18:16:15.320Z,13.48
2023-04-24T18:18:43.520Z,16.13
2023-04-24T18:21:11.202Z,13.75
2023-04-24T18:23:39.082Z,13.57
2023-04-24T18:26:06.863Z,15.65
2023-04-24T18:28:34.683Z,14.05
2023-04-24T18:31:02.794Z,16.58
2023-04-24T18:33:32.337Z,15.52
2023-04-24T18:36:01.225Z,12.10
2023-04-24T18:38:28.972Z,11.75
2023-04-24T18:40:56.774Z,12.45
2023-04-24T18:43:24.498Z,11.10
2023-04-24T18:45:52.694Z,9.50
2023-04-24T18:48:20.403Z,9.63
2023-04-24T18:50:49.534Z,8.38
2023-04-24T18:53:18.131Z,14.07
2023-04-24T18:55:46.006Z,8.93
2023-04-24T18:58:13.865Z,12.68
2023-04-24T19:00:41.685Z,15.55
2023-04-24T19:03:10.194Z,10.85
2023-04-24T19:05:38.171Z,14.25
2023-04-24T19:08:07.372Z,13.25
2023-04-24T19:10:36.640Z,9.35
2023-04-24T19:13:04.574Z,10.05
2023-04-24T19:15:34.011Z,10.73
2023-04-24T19:18:01.879Z,12.65
2023-04-24T19:20:29.589Z,6.78
2023-04-24T19:22:57.858Z,5.82
2023-04-24T19:25:27.068Z,5.68
2023-04-24T19:27:54.790Z,11.38
2023-04-24T19:30:22.644Z,8.18
2023-04-24T19:32:50.424Z,7.32
2023-04-24T19:35:18.332Z,9.82
2023-04-24T19:37:46.032Z,5.75
2023-04-24T19:40:13.821Z,7.68
2023-04-24T19:42:44.619Z,5.97
2023-04-24T19:45:13.211Z,6.30
2023-04-24T19:47:41.035Z,6.05
2023-04-24T19:50:09.552Z,7.32
2023-04-24T19:52:37.220Z,6.25
2023-04-24T19:55:05.314Z,5.30
2023-04-24T19:57:33.093Z,7.82
2023-04-24T20:00:02.385Z,5.78
2023-04-24T20:02:32.996Z,6.95
2023-04-24T20:05:01.233Z,6.68
2023-04-24T20:07:29.082Z,6.32
2023-04-24T20:09:56.819Z,6.35
2023-04-24T20:12:24.646Z,5.80
2023-04-24T20:14:52.457Z,9.88
2023-04-24T20:17:21.464Z,5.32
2023-04-24T20:19:49.287Z,6.10
2023-04-24T20:22:17.127Z,4.93
2023-04-24T20:24:45.817Z,6.68
2023-04-24T20:27:14.939Z,6.93
2023-04-24T20:29:43.174Z,4.50
2023-04-24T20:32:11.509Z,7.15
2023-04-24T20:34:40.642Z,5.13
2023-04-24T20:37:08.434Z,4.45
2023-04-24T20:39:36.789Z,6.72
2023-04-24T20:42:05.245Z,8.30
2023-04-24T20:44:32.984Z,6.43
2023-04-24T20:47:01.306Z,5.05
2023-04-24T20:49:29.070Z,6.15
2023-04-24T20:51:59.125Z,4.80
2023-04-24T20:54:26.963Z,6.40
2023-04-24T20:56:54.745Z,4.88
2023-04-24T20:59:22.435Z,4.90
2023-04-24T21:01:50.645Z,5.00
2023-04-24T21:04:18.523Z,6.72
2023-04-24T21:06:46.417Z,5.03
2023-04-24T21:09:15.912Z,7.03
2023-04-24T21:11:43.741Z,6.78
2023-04-24T21:14:11.945Z,7.28
2023-04-24T21:16:39.798Z,5.15
2023-04-24T21:19:08.254Z,5.80
2023-04-24T21:21:36.092Z,7.63
2023-04-24T21:24:04.494Z,7.55
2023-04-24T21:26:33.830Z,6.45
2023-04-24T21:29:01.881Z,6.15
2023-04-24T21:31:29.632Z,5.50
2023-04-24T21:33:57.440Z,7.43
2023-04-24T21:36:25.369Z,8.90
2023-04-24T21:38:53.476Z,5.53
2023-04-24T21:41:21.260Z,6.03
2023-04-24T21:43:50.871Z,7.07
2023-04-24T21:46:19.778Z,8.07
2023-04-24T21:48:47.537Z,7.22
2023-04-24T21:51:16.714Z,7.80
2023-04-24T21:53:44.479Z,6.45
2023-04-24T21:56:12.345Z,8.50
2023-04-24T21:58:40.289Z,7.10
2023-04-24T22:01:09.916Z,6.55
2023-04-24T22:03:37.828Z,6.13
2023-04-24T22:06:06.605Z,8.40
2023-04-24T22:08:35.123Z,6.65
2023-04-24T22:11:04.370Z,6.22
2023-04-24T22:13:34.962Z,7.03
2023-04-24T22:16:02.734Z,6.78
2023-04-24T22:18:46.119Z,6.20
2023-04-24T22:21:15.226Z,8.25
2023-04-24T22:23:42.853Z,7.82
2023-04-24T22:26:10.592Z,7.88
2023-04-24T22:28:38.320Z,9.88
2023-04-24T22:31:06.771Z,8.38
2023-04-24T22:33:36.013Z,8.85
2023-04-24T22:36:04.699Z,7.80
2023-04-24T22:38:32.333Z,7.63
2023-04-24T22:41:00.971Z,7.45
2023-04-24T22:43:29.066Z,7.38
2023-04-24T22:45:56.883Z,7.90
2023-04-24T22:48:25.842Z,6.97
2023-04-24T22:50:55.932Z,7.30
2023-04-24T22:53:23.782Z,6.97
2023-04-24T22:55:52.140Z,8.65
2023-04-24T22:58:19.903Z,10.30
2023-04-24T23:00:47.590Z,7.63
2023-04-24T23:03:15.680Z,7.55
2023-04-24T23:05:43.875Z,8.50
2023-04-24T23:08:13.163Z,10.30
2023-04-24T23:10:41.036Z,6.20
2023-04-24T23:13:09.174Z,7.07
2023-04-24T23:15:38.819Z,5.63
2023-04-24T23:18:06.691Z,8.65
2023-04-24T23:20:34.329Z,6.97
2023-04-24T23:23:02.649Z,11.82
2023-04-24T23:25:32.698Z,10.02
2023-04-24T23:28:00.510Z,10.05
2023-04-24T23:30:29.627Z,12.25
2023-04-24T23:32:57.441Z,13.90
2023-04-24T23:35:25.831Z,16.40
2023-04-24T23:37:53.574Z,11.30
2023-04-24T23:40:22.240Z,14.30
2023-04-24T23:43:03.323Z,19.13
2023-04-24T23:45:34.669Z,18.10
2023-04-24T23:48:02.984Z,18.98
2023-04-24T23:50:31.302Z,13.65
2023-04-24T23:52:59.840Z,20.75
2023-04-24T23:55:27.602Z,17.95
2023-04-24T23:57:56.752Z,18.35
